createdAt,value
2018-01-30T00:00:40.197Z,18.17
2018-01-30T00:03:06.243Z,16.70
2018-01-30T00:05:32.253Z,19.20
2018-01-30T00:07:58.253Z,26.20
2018-01-30T00:10:24.286Z,18.70
2018-01-30T00:12:50.269Z,16.53
2018-01-30T00:15:16.282Z,19.17
2018-01-30T00:17:42.288Z,20.93
2018-01-30T00:20:08.296Z,23.07
2018-01-30T00:22:34.301Z,24.13
2018-01-30T00:27:45.717Z,30.40
2018-01-30T00:30:11.741Z,29.80
2018-01-30T00:32:37.757Z,25.27
2018-01-30T00:35:03.765Z,23.97
2018-01-30T00:37:29.742Z,19.13
2018-01-30T00:39:55.744Z,26.57
2018-01-30T00:42:21.760Z,17.43
2018-01-30T00:50:21.244Z,16.83
2018-01-30T00:52:53.356Z,16.63
2018-01-30T00:55:19.364Z,14.40
2018-01-30T00:57:45.364Z,13.90
2018-01-30T01:00:11.340Z,18.80
2018-01-30T01:02:38.540Z,15.13
2018-01-30T01:05:04.541Z,18.13
2018-01-30T01:07:30.544Z,16.33
2018-01-30T01:09:56.549Z,17.83
2018-01-30T01:12:22.562Z,18.10
2018-01-30T01:14:49.657Z,14.30
2018-01-30T01:17:15.657Z,15.53
2018-01-30T01:19:41.665Z,10.87
2018-01-30T01:22:07.712Z,11.23
2018-01-30T01:24:44.185Z,16.13
2018-01-30T01:27:10.169Z,14.77
2018-01-30T01:29:36.149Z,15.30
2018-01-30T01:32:02.197Z,13.17
2018-01-30T01:34:35.529Z,13.77
2018-01-30T01:37:01.514Z,14.17
2018-01-30T01:39:27.521Z,16.40
2018-01-30T01:41:53.525Z,18.00
2018-01-30T01:44:19.685Z,20.67
2018-01-30T01:46:45.705Z,19.93
2018-01-30T01:49:11.709Z,20.77
2018-01-30T01:51:37.716Z,19.43
2018-01-30T01:54:07.204Z,20.07
2018-01-30T01:56:33.208Z,23.03
2018-01-30T01:58:59.185Z,20.93
2018-01-30T02:01:25.204Z,24.17
2018-01-30T02:04:01.977Z,26.33
2018-01-30T02:06:27.952Z,22.27
2018-01-30T02:08:53.940Z,20.23
2018-01-30T02:11:19.945Z,25.03
2018-01-30T02:13:57.480Z,20.63
2018-01-30T02:16:23.465Z,24.07
2018-01-30T02:18:49.472Z,23.87
2018-01-30T02:21:15.452Z,25.40
2018-01-30T02:23:45.145Z,24.77
2018-01-30T02:26:11.121Z,25.60
2018-01-30T02:28:37.136Z,24.50
2018-01-30T02:31:03.154Z,24.90
2018-01-30T02:33:34.729Z,24.63
2018-01-30T02:36:00.720Z,30.33
2018-01-30T02:38:26.701Z,22.00
2018-01-30T02:40:52.711Z,24.37
2018-01-30T02:43:23.781Z,23.40
2018-01-30T02:45:49.838Z,22.53
2018-01-30T02:48:15.820Z,15.77
2018-01-30T02:50:41.877Z,14.13
2018-01-30T02:53:11.282Z,17.30
2018-01-30T02:55:37.285Z,17.57
2018-01-30T02:58:03.293Z,20.30
2018-01-30T03:00:29.310Z,17.97
2018-01-30T03:03:09.457Z,16.77
2018-01-30T03:05:35.444Z,21.30
2018-01-30T03:08:01.428Z,17.53
2018-01-30T03:10:27.405Z,17.20
2018-01-30T03:12:57.368Z,20.10
2018-01-30T03:15:23.357Z,20.93
2018-01-30T03:17:49.364Z,24.87
2018-01-30T03:20:15.366Z,22.30
2018-01-30T03:22:51.364Z,19.53
2018-01-30T03:25:17.364Z,24.87
2018-01-30T03:27:43.388Z,28.60
2018-01-30T03:30:09.389Z,29.20
2018-01-30T03:32:44.008Z,28.40
2018-01-30T03:35:09.985Z,26.50
2018-01-30T03:37:35.972Z,25.30
2018-01-30T03:40:01.993Z,24.57
2018-01-30T03:42:32.736Z,22.90
2018-01-30T03:44:58.740Z,29.53
2018-01-30T03:47:24.717Z,29.73
2018-01-30T03:49:50.705Z,22.83
2018-01-30T03:52:20.273Z,20.33
2018-01-30T03:54:46.276Z,19.07
2018-01-30T03:57:12.277Z,18.90
2018-01-30T03:59:38.276Z,23.50
2018-01-30T04:02:04.253Z,24.70
2018-01-30T04:04:45.884Z,24.03
2018-01-30T04:07:11.901Z,26.67
2018-01-30T04:09:37.881Z,29.87
2018-01-30T04:12:03.861Z,27.87
2018-01-30T04:14:30.968Z,29.47
2018-01-30T04:16:56.977Z,25.83
2018-01-30T04:19:22.985Z,26.53
2018-01-30T04:21:48.984Z,24.03
2018-01-30T04:24:18.760Z,25.63
2018-01-30T04:26:44.776Z,24.70
2018-01-30T04:29:10.802Z,19.90
2018-01-30T04:31:36.831Z,22.87
2018-01-30T04:34:03.953Z,23.20
2018-01-30T04:36:29.957Z,21.17
2018-01-30T04:38:55.976Z,21.73
2018-01-30T04:41:21.952Z,16.50
2018-01-30T04:43:49.969Z,18.10
2018-01-30T04:46:15.977Z,23.23
2018-01-30T04:48:41.984Z,20.57
2018-01-30T04:51:07.956Z,24.13
2018-01-30T04:53:38.272Z,21.07
2018-01-30T04:56:04.277Z,20.03
2018-01-30T04:58:30.282Z,19.13
2018-01-30T05:00:56.284Z,24.40
2018-01-30T05:03:29.196Z,30.47
2018-01-30T05:05:55.208Z,24.50
2018-01-30T05:08:21.217Z,22.73
2018-01-30T05:10:47.221Z,29.17
2018-01-30T05:13:30.584Z,34.93
2018-01-30T05:15:56.561Z,35.13
2018-01-30T05:18:22.576Z,37.70
2018-01-30T05:20:48.589Z,45.40
2018-01-30T05:23:21.904Z,49.63
2018-01-30T05:25:47.984Z,61.00
2018-01-30T05:28:13.987Z,61.20
2018-01-30T05:30:39.985Z,67.20
2018-01-30T05:33:06.025Z,61.03
2018-01-30T05:35:32.004Z,46.63
2018-01-30T05:37:58.021Z,40.47
2018-01-30T05:40:24.009Z,34.20
2018-01-30T05:42:54.633Z,23.33
2018-01-30T05:45:20.649Z,27.07
2018-01-30T05:47:46.693Z,22.00
2018-01-30T05:50:12.708Z,26.73
2018-01-30T05:52:38.754Z,23.67
2018-01-30T05:55:04.768Z,23.30
2018-01-30T05:57:30.764Z,25.10
2018-01-30T05:59:56.769Z,26.33
2018-01-30T06:02:30.989Z,35.17
2018-01-30T06:04:56.993Z,38.60
2018-01-30T06:07:22.988Z,72.60
2018-01-30T06:09:48.968Z,69.73
2018-01-30T06:12:25.397Z,59.70
2018-01-30T06:21:33.341Z,31.30
2018-01-30T06:23:59.385Z,31.00
2018-01-30T06:26:25.373Z,23.17
2018-01-30T06:28:51.380Z,14.77
2018-01-30T06:31:17.365Z,14.43
2018-01-30T06:33:50.049Z,19.73
2018-01-30T06:36:16.025Z,203.53
2018-01-30T06:38:42.028Z,11.30
2018-01-30T06:41:08.000Z,5.33
2018-01-30T06:43:39.852Z,7.17
2018-01-30T06:46:05.874Z,5.93
2018-01-30T06:48:31.845Z,5.00
2018-01-30T06:50:57.908Z,5.10
2018-01-30T06:53:24.004Z,6.37
2018-01-30T06:55:50.012Z,5.40
2018-01-30T06:58:16.010Z,12.40
2018-01-30T07:00:42.021Z,13.33
2018-01-30T07:03:16.212Z,9.33
2018-01-30T07:05:42.221Z,16.20
2018-01-30T07:08:08.237Z,12.70
2018-01-30T07:10:34.240Z,10.27
2018-01-30T07:13:17.105Z,12.93
2018-01-30T07:15:43.104Z,11.30
2018-01-30T07:18:09.116Z,15.13
2018-01-30T07:20:35.113Z,11.57
2018-01-30T07:23:01.177Z,8.13
2018-01-30T07:25:27.189Z,8.13
2018-01-30T07:27:53.165Z,13.27
2018-01-30T07:30:19.181Z,12.67
2018-01-30T07:32:52.605Z,5.03
2018-01-30T07:35:18.637Z,7.27
2018-01-30T07:37:44.689Z,7.73
2018-01-30T07:40:10.689Z,9.47
2018-01-30T07:42:44.200Z,5.60
2018-01-30T07:45:10.218Z,6.13
2018-01-30T07:47:36.200Z,6.20
2018-01-30T07:50:02.200Z,5.60
2018-01-30T07:52:31.949Z,7.27
2018-01-30T07:54:57.953Z,4.93
2018-01-30T07:57:23.949Z,8.30
2018-01-30T07:59:49.964Z,7.50
2018-01-30T08:02:18.198Z,5.37
2018-01-30T08:04:44.201Z,8.37
2018-01-30T08:07:10.183Z,8.87
2018-01-30T08:09:36.189Z,7.07
2018-01-30T08:12:10.141Z,8.70
2018-01-30T08:14:36.144Z,6.53
2018-01-30T08:17:02.149Z,6.93
2018-01-30T08:19:28.148Z,5.63
2018-01-30T08:22:01.741Z,9.03
2018-01-30T08:24:27.748Z,7.13
2018-01-30T08:26:53.941Z,10.30
2018-01-30T08:29:19.972Z,12.63
2018-01-30T08:31:58.810Z,19.50
2018-01-30T08:34:24.788Z,10.73
2018-01-30T08:36:50.795Z,9.13
2018-01-30T08:39:16.773Z,6.70
2018-01-30T08:41:49.336Z,7.07
2018-01-30T08:44:15.356Z,7.93
2018-01-30T08:46:41.381Z,8.13
2018-01-30T08:49:07.368Z,4.60
2018-01-30T08:51:33.566Z,5.37
2018-01-30T08:53:59.578Z,3.03
2018-01-30T08:56:25.604Z,2.93
2018-01-30T08:58:51.681Z,3.47
2018-01-30T09:01:17.721Z,9.03
2018-01-30T09:03:44.889Z,6.33
2018-01-30T09:06:10.881Z,3.20
2018-01-30T09:08:36.896Z,3.80
2018-01-30T09:11:02.892Z,2.73
2018-01-30T09:13:37.877Z,3.10
2018-01-30T09:16:04.005Z,3.87
2018-01-30T09:18:30.029Z,3.47
2018-01-30T09:20:56.049Z,3.97
2018-01-30T09:23:26.345Z,2.83
2018-01-30T09:25:52.364Z,4.87
2018-01-30T09:28:18.385Z,2.87
2018-01-30T09:30:44.373Z,2.33
2018-01-30T09:33:16.176Z,13.60
2018-01-30T09:35:42.204Z,4.10
2018-01-30T09:38:08.228Z,3.10
2018-01-30T09:40:34.296Z,2.50
2018-01-30T09:43:06.313Z,3.07
2018-01-30T09:45:32.345Z,2.60
2018-01-30T09:47:58.373Z,3.80
2018-01-30T09:50:24.394Z,3.60
2018-01-30T09:52:50.505Z,2.27
2018-01-30T09:55:16.529Z,3.03
2018-01-30T09:57:42.520Z,8.03
2018-01-30T10:00:08.602Z,3.93
2018-01-30T10:02:34.664Z,3.50
2018-01-30T10:05:00.709Z,4.23
2018-01-30T10:07:26.724Z,3.17
2018-01-30T10:09:52.749Z,3.47
2018-01-30T10:12:33.061Z,2.73
2018-01-30T10:15:00.484Z,3.57
2018-01-30T10:17:26.501Z,2.87
2018-01-30T10:19:52.576Z,2.57
2018-01-30T10:22:24.620Z,5.33
2018-01-30T10:24:50.682Z,1.97
2018-01-30T10:27:16.666Z,2.13
2018-01-30T10:29:42.672Z,2.40
2018-01-30T10:32:08.748Z,2.30
2018-01-30T10:34:34.778Z,2.47
2018-01-30T10:37:00.753Z,2.23
2018-01-30T10:39:26.769Z,4.33
2018-01-30T10:41:53.980Z,2.30
2018-01-30T10:44:19.998Z,3.77
2018-01-30T10:46:46.025Z,4.70
2018-01-30T10:49:12.050Z,4.30
2018-01-30T10:51:44.613Z,1.90
2018-01-30T10:54:10.632Z,3.10
2018-01-30T10:56:36.614Z,10.30
2018-01-30T10:59:02.737Z,4.33
2018-01-30T11:01:29.113Z,2.17
2018-01-30T11:03:55.092Z,1.40
2018-01-30T11:06:21.117Z,2.10
2018-01-30T11:08:47.157Z,1.60
2018-01-30T11:11:19.449Z,3.57
2018-01-30T11:13:45.474Z,6.63
2018-01-30T11:16:11.492Z,1.73
2018-01-30T11:18:37.473Z,9.93
2018-01-30T11:21:03.577Z,0.90
2018-01-30T11:23:29.549Z,3.33
2018-01-30T11:25:55.572Z,1.60
2018-01-30T11:28:21.552Z,1.20
2018-01-30T11:30:47.564Z,20.20
2018-01-30T11:36:02.101Z,2.73
2018-01-30T11:38:28.111Z,8.37
2018-01-30T11:40:54.124Z,1.00
2018-01-30T11:43:21.216Z,4.87
2018-01-30T11:45:47.237Z,1.03
2018-01-30T11:48:13.281Z,2.43
2018-01-30T11:50:39.301Z,2.73
2018-01-30T11:53:08.757Z,2.43
2018-01-30T11:55:34.773Z,2.37
2018-01-30T11:58:00.797Z,1.50
2018-01-30T12:00:26.816Z,1.90
2018-01-30T12:02:56.493Z,1.60
2018-01-30T12:05:22.528Z,1.50
2018-01-30T12:07:48.563Z,3.00
2018-01-30T12:10:14.545Z,2.60
2018-01-30T12:12:44.284Z,4.13
2018-01-30T12:15:10.300Z,1.33
2018-01-30T12:17:36.317Z,1.37
2018-01-30T12:20:02.292Z,1.60
2018-01-30T12:22:28.469Z,1.50
2018-01-30T12:24:54.485Z,1.70
2018-01-30T12:27:20.511Z,1.33
2018-01-30T12:29:46.532Z,2.27
2018-01-30T12:32:27.381Z,1.20
2018-01-30T12:34:53.360Z,3.20
2018-01-30T12:37:19.341Z,1.20
2018-01-30T12:39:45.325Z,6.50
2018-01-30T12:42:18.445Z,4.03
2018-01-30T12:44:44.470Z,3.57
2018-01-30T12:47:25.392Z,2.20
2018-01-30T12:49:51.377Z,1.30
2018-01-30T12:52:17.421Z,1.53
2018-01-30T12:54:43.442Z,1.40
2018-01-30T12:57:09.431Z,4.33
2018-01-30T12:59:35.448Z,3.23
2018-01-30T13:02:01.577Z,1.50
2018-01-30T13:04:27.573Z,1.30
2018-01-30T13:06:53.629Z,4.87
2018-01-30T13:09:19.662Z,1.37
2018-01-30T13:11:45.813Z,1.80
2018-01-30T13:14:11.792Z,3.30
2018-01-30T13:16:37.776Z,2.13
2018-01-30T13:19:03.829Z,2.90
2018-01-30T13:21:42.086Z,1.83
2018-01-30T13:24:08.126Z,2.10
2018-01-30T13:26:34.136Z,1.97
2018-01-30T13:29:00.189Z,2.43
2018-01-30T13:31:38.122Z,2.20
2018-01-30T13:34:04.161Z,2.10
2018-01-30T13:36:30.165Z,2.37
2018-01-30T13:38:56.189Z,1.80
2018-01-30T13:41:23.265Z,2.40
2018-01-30T13:43:49.258Z,4.43
2018-01-30T13:46:15.254Z,2.63
2018-01-30T13:48:41.281Z,3.40
2018-01-30T13:51:08.481Z,4.60
2018-01-30T13:53:34.512Z,15.13
2018-01-30T13:56:00.545Z,6.83
2018-01-30T13:58:26.581Z,14.40
2018-01-30T14:00:52.669Z,5.33
2018-01-30T14:03:18.661Z,2.97
2018-01-30T14:05:44.685Z,3.20
2018-01-30T14:08:10.709Z,12.03
2018-01-30T14:10:36.697Z,7.07
2018-01-30T14:13:02.792Z,3.13
2018-01-30T14:15:28.757Z,4.00
2018-01-30T14:17:54.788Z,4.40
2018-01-30T14:20:20.782Z,4.10
2018-01-30T14:22:50.549Z,4.33
2018-01-30T14:25:16.599Z,4.67
2018-01-30T14:27:42.625Z,2.80
2018-01-30T14:30:08.657Z,4.63
2018-01-30T14:32:41.129Z,3.83
2018-01-30T14:35:07.175Z,4.97
2018-01-30T14:37:33.205Z,3.50
2018-01-30T14:39:59.234Z,3.90
2018-01-30T14:42:27.397Z,8.43
2018-01-30T14:44:53.393Z,7.27
2018-01-30T14:47:19.425Z,3.47
2018-01-30T14:49:45.461Z,3.33
2018-01-30T14:52:11.620Z,4.10
2018-01-30T14:54:37.621Z,4.80
2018-01-30T14:57:03.657Z,2.80
2018-01-30T14:59:29.694Z,3.47
2018-01-30T15:01:55.784Z,7.43
2018-01-30T15:04:21.813Z,3.83
2018-01-30T15:06:47.860Z,5.10
2018-01-30T15:09:13.886Z,3.10
2018-01-30T15:11:39.972Z,3.80
2018-01-30T15:14:05.969Z,4.00
2018-01-30T15:16:31.997Z,4.17
2018-01-30T15:18:57.996Z,4.63
2018-01-30T15:21:32.741Z,5.57
2018-01-30T15:23:58.785Z,5.33
2018-01-30T15:26:24.785Z,4.67
2018-01-30T15:28:50.822Z,5.43
2018-01-30T15:31:21.466Z,4.53
2018-01-30T15:33:47.456Z,5.80
2018-01-30T15:36:13.493Z,6.37
2018-01-30T15:38:39.529Z,5.37
2018-01-30T15:41:05.630Z,6.40
2018-01-30T15:43:31.680Z,15.10
2018-01-30T15:45:57.710Z,4.97
2018-01-30T15:48:23.737Z,5.47
2018-01-30T15:51:07.643Z,6.93
2018-01-30T15:53:33.670Z,6.57
2018-01-30T15:55:59.694Z,9.50
2018-01-30T15:58:25.755Z,4.73
2018-01-30T16:00:51.981Z,5.60
2018-01-30T16:03:18.009Z,5.77
2018-01-30T16:05:44.037Z,6.00
2018-01-30T16:08:10.075Z,7.03
2018-01-30T16:10:36.145Z,8.40
2018-01-30T16:13:02.139Z,6.40
2018-01-30T16:15:28.224Z,6.73
2018-01-30T16:17:54.249Z,15.20
2018-01-30T16:20:20.273Z,7.57
2018-01-30T16:22:46.265Z,8.03
2018-01-30T16:25:12.306Z,8.90
2018-01-30T16:27:38.345Z,11.30
2018-01-30T16:30:04.379Z,8.57
2018-01-30T16:32:31.441Z,9.23
2018-01-30T16:34:57.437Z,10.30
2018-01-30T16:37:23.441Z,19.43
2018-01-30T16:39:49.469Z,43.30
2018-01-30T16:42:21.101Z,24.93
2018-01-30T16:44:47.133Z,15.13
2018-01-30T16:47:13.128Z,19.33
2018-01-30T16:49:40.066Z,16.43
2018-01-30T16:52:25.877Z,10.93
2018-01-30T16:54:51.913Z,9.47
2018-01-30T16:57:17.909Z,12.83
2018-01-30T16:59:43.912Z,10.13
2018-01-30T17:02:23.973Z,12.03
2018-01-30T17:04:50.013Z,13.53
2018-01-30T17:07:16.018Z,10.10
2018-01-30T17:09:42.012Z,9.47
2018-01-30T17:12:15.993Z,12.27
2018-01-30T17:14:42.021Z,8.03
2018-01-30T17:17:08.098Z,10.10
2018-01-30T17:19:34.138Z,9.93
2018-01-30T17:22:02.233Z,10.70
2018-01-30T17:24:29.045Z,10.23
2018-01-30T17:26:55.049Z,11.70
2018-01-30T17:29:21.057Z,10.63
2018-01-30T17:32:00.068Z,11.53
2018-01-30T17:34:26.115Z,14.43
2018-01-30T17:36:52.149Z,11.57
2018-01-30T17:39:18.137Z,11.77
2018-01-30T17:41:45.171Z,13.67
2018-01-30T17:44:11.197Z,14.50
2018-01-30T17:46:37.277Z,14.43
2018-01-30T17:49:03.295Z,17.53
2018-01-30T17:51:33.218Z,16.00
2018-01-30T17:53:59.287Z,14.53
2018-01-30T17:56:25.326Z,14.17
2018-01-30T17:58:51.370Z,13.67
2018-01-30T18:01:17.419Z,12.93
2018-01-30T18:03:43.425Z,13.60
2018-01-30T18:06:09.493Z,14.13
2018-01-30T18:08:35.526Z,13.83
2018-01-30T18:11:03.994Z,17.10
2018-01-30T18:13:30.089Z,14.90
2018-01-30T18:15:56.115Z,16.33
2018-01-30T18:18:22.202Z,15.77
2018-01-30T18:20:54.560Z,16.07
2018-01-30T18:23:20.598Z,17.77
2018-01-30T18:25:46.867Z,15.20
2018-01-30T18:28:12.945Z,15.83
2018-01-30T18:30:43.383Z,15.57
2018-01-30T18:33:09.584Z,15.60
2018-01-30T18:35:36.361Z,16.27
2018-01-30T18:38:02.453Z,15.63
2018-01-30T18:40:28.572Z,17.30
2018-01-30T18:42:54.607Z,17.87
2018-01-30T18:45:21.640Z,16.93
2018-01-30T18:47:47.693Z,17.57
2018-01-30T18:50:17.090Z,17.60
2018-01-30T18:52:43.150Z,19.27
2018-01-30T18:55:09.234Z,21.03
2018-01-30T18:57:35.460Z,24.67
2018-01-30T19:00:01.508Z,27.67
2018-01-30T19:02:27.546Z,28.33
2018-01-30T19:04:53.726Z,26.13
2018-01-30T19:07:20.472Z,24.37
2018-01-30T19:09:46.855Z,17.40
2018-01-30T19:12:13.292Z,19.10
2018-01-30T19:14:39.363Z,18.47
2018-01-30T19:17:06.673Z,19.30
2018-01-30T19:19:32.697Z,17.67
2018-01-30T19:21:59.100Z,18.47
2018-01-30T19:24:25.195Z,17.23
2018-01-30T19:26:51.236Z,19.40
2018-01-30T19:29:17.556Z,18.77
2018-01-30T19:31:48.930Z,20.37
2018-01-30T19:34:15.029Z,42.50
2018-01-30T19:36:41.213Z,25.67
2018-01-30T19:39:07.563Z,18.90
2018-01-30T19:41:34.845Z,19.80
2018-01-30T19:44:00.923Z,19.03
2018-01-30T19:46:27.823Z,18.63
2018-01-30T19:48:54.059Z,19.00
2018-01-30T19:51:21.521Z,18.40
2018-01-30T19:53:47.783Z,17.10
2018-01-30T19:56:14.688Z,17.27
2018-01-30T19:58:41.419Z,16.87
2018-01-30T20:01:07.586Z,18.17
2018-01-30T20:03:34.795Z,19.53
2018-01-30T20:06:01.157Z,17.73
2018-01-30T20:08:27.324Z,21.03
2018-01-30T20:10:53.753Z,20.60
2018-01-30T20:13:19.880Z,21.70
2018-01-30T20:15:45.938Z,19.03
2018-01-30T20:18:12.373Z,20.17
2018-01-30T20:20:46.150Z,19.53
2018-01-30T20:23:12.241Z,19.03
2018-01-30T20:25:38.837Z,18.80
2018-01-30T20:28:05.999Z,19.03
2018-01-30T20:30:32.729Z,17.80
2018-01-30T20:32:58.860Z,17.50
2018-01-30T20:35:24.933Z,19.13
2018-01-30T20:37:51.019Z,18.23
2018-01-30T20:40:17.129Z,19.23
2018-01-30T20:42:43.363Z,21.57
2018-01-30T20:45:09.543Z,20.80
2018-01-30T20:47:35.974Z,19.87
2018-01-30T20:50:02.053Z,20.20
2018-01-30T20:52:28.081Z,19.37
2018-01-30T20:54:54.421Z,17.80
2018-01-30T20:57:20.598Z,23.00
2018-01-30T20:59:48.147Z,22.37
2018-01-30T21:02:14.477Z,21.43
2018-01-30T21:04:40.591Z,26.50
2018-01-30T21:07:06.645Z,28.60
2018-01-30T21:09:33.520Z,19.77
2018-01-30T21:11:59.800Z,16.33
2018-01-30T21:14:26.235Z,18.33
2018-01-30T21:16:52.339Z,15.90
2018-01-30T21:19:18.501Z,16.50
2018-01-30T21:21:46.769Z,18.00
2018-01-30T21:24:12.845Z,17.40
2018-01-30T21:26:39.169Z,16.27
2018-01-30T21:29:05.601Z,19.10
2018-01-30T21:31:31.789Z,20.20
2018-01-30T21:33:57.814Z,20.20
2018-01-30T21:36:38.748Z,18.23
2018-01-30T21:39:04.805Z,18.47
2018-01-30T21:41:47.725Z,19.67
2018-01-30T21:44:13.749Z,19.47
2018-01-30T21:46:39.791Z,21.97
2018-01-30T21:49:05.853Z,19.80
2018-01-30T21:51:32.109Z,20.20
2018-01-30T21:53:58.448Z,20.37
2018-01-30T21:56:24.465Z,23.20
2018-01-30T21:58:50.491Z,25.10
2018-01-30T22:01:16.594Z,23.03
2018-01-30T22:03:42.612Z,26.00
2018-01-30T22:06:08.668Z,25.27
2018-01-30T22:08:34.776Z,37.90
2018-01-30T22:11:04.867Z,41.97
2018-01-30T22:13:30.889Z,43.07
2018-01-30T22:15:56.945Z,41.23
2018-01-30T22:18:23.001Z,40.27
2018-01-30T22:20:53.161Z,41.70
2018-01-30T22:23:19.185Z,37.40
2018-01-30T22:25:45.248Z,38.00
2018-01-30T22:28:11.334Z,34.50
2018-01-30T22:30:45.712Z,58.33
2018-01-30T22:33:11.808Z,28.37
2018-01-30T22:35:37.864Z,21.13
2018-01-30T22:38:03.919Z,26.77
2018-01-30T22:40:33.544Z,31.53
2018-01-30T22:42:59.620Z,29.80
2018-01-30T22:45:25.686Z,30.37
